createdAt,value
2019-05-02T00:00:15.692Z,99535
2019-05-02T00:05:15.690Z,99538
2019-05-02T00:10:19.849Z,99536
2019-05-02T00:15:15.694Z,99534
2019-05-02T00:20:15.676Z,99531
2019-05-02T00:25:17.127Z,99520
2019-05-02T00:30:15.676Z,99521
2019-05-02T00:35:15.679Z,99515
2019-05-02T00:40:19.970Z,99520
2019-05-02T00:45:18.591Z,99511
2019-05-02T00:50:15.671Z,99518
2019-05-02T00:55:15.738Z,99508
2019-05-02T01:00:18.234Z,99512
2019-05-02T01:05:15.684Z,99504
2019-05-02T01:10:17.191Z,99498
2019-05-02T01:15:15.718Z,99497
2019-05-02T01:20:15.716Z,99508
2019-05-02T01:25:17.212Z,99500
2019-05-02T01:30:15.700Z,99501
2019-05-02T01:35:15.714Z,99491
2019-05-02T01:40:17.671Z,99486
2019-05-02T01:45:15.722Z,99487
2019-05-02T01:50:15.721Z,99472
2019-05-02T01:55:16.911Z,99480
2019-05-02T02:00:15.735Z,99472
2019-05-02T02:05:15.727Z,99465
2019-05-02T02:10:19.717Z,99457
2019-05-02T02:15:15.754Z,99456
2019-05-02T02:20:15.762Z,99453
2019-05-02T02:25:15.738Z,99452
2019-05-02T02:30:17.479Z,99456
2019-05-02T02:35:15.726Z,99454
2019-05-02T02:40:15.752Z,99448
2019-05-02T02:45:18.505Z,99451
2019-05-02T02:50:15.727Z,99444
2019-05-02T02:55:15.992Z,99453
2019-05-02T03:00:15.730Z,99451
2019-05-02T03:05:18.467Z,99448
2019-05-02T03:10:15.766Z,99453
2019-05-02T03:15:20.750Z,99452
2019-05-02T03:20:15.724Z,99442
2019-05-02T03:25:17.983Z,99449
2019-05-02T03:30:28.709Z,99446
2019-05-02T03:35:18.577Z,99451
2019-05-02T03:40:15.774Z,99451
2019-05-02T03:45:15.745Z,99452
2019-05-02T03:50:15.777Z,99440
2019-05-02T03:55:15.829Z,99439
2019-05-02T04:00:20.673Z,99440
2019-05-02T04:05:15.757Z,99441
2019-05-02T04:10:19.621Z,99443
2019-05-02T04:15:15.751Z,99447
2019-05-02T04:20:15.748Z,99447
2019-05-02T04:25:15.775Z,99444
2019-05-02T04:30:15.766Z,99440
2019-05-02T04:35:15.752Z,99434
2019-05-02T04:40:18.145Z,99445
2019-05-02T04:45:26.130Z,99449
2019-05-02T04:50:18.423Z,99453
2019-05-02T04:55:25.554Z,99439
2019-05-02T05:00:18.290Z,99436
2019-05-02T05:05:17.114Z,99440
2019-05-02T05:10:18.246Z,99443
2019-05-02T05:15:33.222Z,99443
2019-05-02T05:20:15.943Z,99447
2019-05-02T05:25:17.520Z,99442
2019-05-02T05:30:18.605Z,99435
2019-05-02T05:35:17.665Z,99446
2019-05-02T05:40:17.628Z,99447
2019-05-02T05:45:17.359Z,99454
2019-05-02T05:50:17.566Z,99455
2019-05-02T05:55:18.116Z,99454
2019-05-02T06:00:20.336Z,99450
2019-05-02T06:05:17.436Z,99455
2019-05-02T06:10:15.806Z,99451
2019-05-02T06:15:15.801Z,99454
2019-05-02T06:20:15.789Z,99445
2019-05-02T06:25:15.829Z,99449
2019-05-02T06:30:15.783Z,99450
2019-05-02T06:35:17.036Z,99446
2019-05-02T06:40:15.834Z,99448
2019-05-02T06:45:15.821Z,99442
2019-05-02T06:50:15.805Z,99443
2019-05-02T06:55:15.874Z,99444
2019-05-02T07:00:15.816Z,99443
2019-05-02T07:05:15.823Z,99432
2019-05-02T07:10:19.934Z,99448
2019-05-02T07:15:15.858Z,99439
2019-05-02T07:20:15.834Z,99433
2019-05-02T07:25:15.867Z,99439
2019-05-02T07:30:15.833Z,99436
2019-05-02T07:35:19.117Z,99430
2019-05-02T07:40:16.749Z,99435
2019-05-02T07:45:15.804Z,99442
2019-05-02T07:50:15.812Z,99427
2019-05-02T07:55:15.899Z,99430
2019-05-02T08:00:15.806Z,99417
2019-05-02T08:05:21.461Z,99418
2019-05-02T08:10:16.203Z,99424
2019-05-02T08:15:15.810Z,99423
2019-05-02T08:20:18.980Z,99418
2019-05-02T08:25:15.844Z,99410
2019-05-02T08:30:15.821Z,99418
2019-05-02T08:35:15.837Z,99417
2019-05-02T08:40:15.850Z,99416
2019-05-02T08:45:15.836Z,99408
2019-05-02T08:50:15.851Z,99413
2019-05-02T08:55:15.848Z,99405
2019-05-02T09:00:15.871Z,99392
2019-05-02T09:05:15.873Z,99393
2019-05-02T09:10:15.904Z,99384
2019-05-02T09:15:15.861Z,99373
2019-05-02T09:20:20.529Z,99366
2019-05-02T09:25:15.858Z,99368
2019-05-02T09:30:16.972Z,99369
2019-05-02T09:35:15.886Z,99363
2019-05-02T09:40:16.757Z,99363
2019-05-02T09:45:16.266Z,99353
2019-05-02T09:50:20.441Z,99345
2019-05-02T09:55:15.911Z,99353
2019-05-02T10:00:15.878Z,99346
2019-05-02T10:05:15.884Z,99340
2019-05-02T10:10:15.894Z,99336
2019-05-02T10:15:15.920Z,99327
2019-05-02T10:20:15.895Z,99326
2019-05-02T10:25:15.892Z,99328
2019-05-02T10:30:15.995Z,99313
2019-05-02T10:35:15.863Z,99313
2019-05-02T10:40:17.201Z,99308
2019-05-02T10:45:16.791Z,99300
2019-05-02T10:50:15.862Z,99307
2019-05-02T10:55:15.951Z,99296
2019-05-02T11:00:15.882Z,99287
2019-05-02T11:05:16.786Z,99270
2019-05-02T11:10:15.908Z,99273
2019-05-02T11:15:15.889Z,99274
2019-05-02T11:20:15.895Z,99277
2019-05-02T11:25:15.928Z,99275
2019-05-02T11:30:16.693Z,99277
2019-05-02T11:35:15.883Z,99261
2019-05-02T11:40:15.910Z,99262
2019-05-02T11:45:15.893Z,99258
2019-05-02T11:50:15.905Z,99253
2019-05-02T11:55:18.901Z,99254
2019-05-02T12:00:15.954Z,99259
2019-05-02T12:05:15.919Z,99256
2019-05-02T12:10:15.947Z,99255
2019-05-02T12:15:15.919Z,99261
2019-05-02T12:20:15.918Z,99264
2019-05-02T12:25:15.957Z,99252
2019-05-02T12:30:15.999Z,99257
2019-05-02T12:35:15.902Z,99265
2019-05-02T12:40:15.919Z,99271
2019-05-02T12:45:15.927Z,99257
2019-05-02T12:50:15.948Z,99261
2019-05-02T12:55:15.939Z,99268
2019-05-02T13:00:18.339Z,99271
2019-05-02T13:05:15.939Z,99269
2019-05-02T13:10:15.961Z,99262
2019-05-02T13:15:15.991Z,99266
2019-05-02T13:20:15.939Z,99266
2019-05-02T13:25:15.946Z,99261
2019-05-02T13:30:15.923Z,99262
2019-05-02T13:35:15.917Z,99257
2019-05-02T13:40:17.156Z,99258
2019-05-02T13:45:15.994Z,99256
2019-05-02T13:50:15.925Z,99240
2019-05-02T13:55:15.945Z,99252
2019-05-02T14:00:15.957Z,99265
2019-05-02T14:05:15.951Z,99254
2019-05-02T14:10:15.980Z,99247
2019-05-02T14:15:16.004Z,99236
2019-05-02T14:20:15.969Z,99236
2019-05-02T14:25:16.010Z,99230
2019-05-02T14:30:15.985Z,99225
2019-05-02T14:35:18.528Z,99212
2019-05-02T14:40:15.994Z,99207
2019-05-02T14:45:27.122Z,99209
2019-05-02T14:50:24.021Z,99204
2019-05-02T14:55:16.936Z,99194
2019-05-02T15:00:16.932Z,99182
2019-05-02T15:05:19.135Z,99190
2019-05-02T15:10:15.982Z,99187
2019-05-02T15:15:15.947Z,99172
2019-05-02T15:20:15.956Z,99175
2019-05-02T15:25:17.915Z,99170
2019-05-02T15:30:16.126Z,99164
2019-05-02T15:35:17.559Z,99153
2019-05-02T15:45:15.959Z,99151
2019-05-02T15:50:21.812Z,99147
2019-05-02T15:55:15.982Z,99147
2019-05-02T16:00:22.756Z,99140
2019-05-02T16:05:15.964Z,99135
2019-05-02T16:10:16.018Z,99120
2019-05-02T16:15:21.188Z,99124
2019-05-02T16:20:16.015Z,99128
2019-05-02T16:25:19.931Z,99121
2019-05-02T16:30:16.006Z,99102
2019-05-02T16:35:17.300Z,99094
2019-05-02T16:40:16.027Z,99089
2019-05-02T16:45:16.001Z,99096
2019-05-02T16:50:18.516Z,99102
2019-05-02T16:55:20.695Z,99101
2019-05-02T17:00:15.976Z,99094
2019-05-02T17:05:15.991Z,99104
2019-05-02T17:10:17.671Z,99100
2019-05-02T17:15:16.004Z,99095
2019-05-02T17:20:16.704Z,99098
2019-05-02T17:25:16.024Z,99105
2019-05-02T17:30:16.024Z,99104
2019-05-02T17:35:16.057Z,99108
2019-05-02T17:40:16.747Z,99105
2019-05-02T17:45:16.023Z,99119
2019-05-02T17:50:19.363Z,99122
2019-05-02T17:55:16.020Z,99112
2019-05-02T18:00:16.817Z,99125
2019-05-02T18:05:16.024Z,99120
2019-05-02T18:10:20.631Z,99119
2019-05-02T18:15:16.033Z,99122
2019-05-02T18:20:16.005Z,99114
2019-05-02T18:25:16.213Z,99120
2019-05-02T18:30:17.136Z,99117
2019-05-02T18:35:16.036Z,99125
2019-05-02T18:40:20.086Z,99114
2019-05-02T18:45:16.061Z,99108
2019-05-02T18:50:16.041Z,99116
2019-05-02T18:55:17.068Z,99115
2019-05-02T19:00:16.079Z,99114
2019-05-02T19:05:19.114Z,99117
2019-05-02T19:10:16.045Z,99121
2019-05-02T19:15:16.056Z,99119
2019-05-02T19:20:16.087Z,99116
2019-05-02T19:25:16.042Z,99113
2019-05-02T19:30:18.809Z,99108
2019-05-02T19:35:16.088Z,99112
2019-05-02T19:40:20.002Z,99113
2019-05-02T19:45:16.782Z,99107
2019-05-02T19:50:16.093Z,99106
2019-05-02T19:55:19.882Z,99122
2019-05-02T20:00:16.060Z,99122
2019-05-02T20:05:16.393Z,99121
2019-05-02T20:10:17.838Z,99118
2019-05-02T20:15:16.982Z,99126
2019-05-02T20:20:16.083Z,99129
2019-05-02T20:25:16.044Z,99145
2019-05-02T20:30:16.045Z,99143
2019-05-02T20:35:16.076Z,99155
2019-05-02T20:40:16.061Z,99147
2019-05-02T20:45:16.083Z,99154
2019-05-02T20:50:16.059Z,99161
2019-05-02T20:55:16.072Z,99169
2019-05-02T21:00:16.090Z,99173
2019-05-02T21:05:16.080Z,99170
2019-05-02T21:10:16.069Z,99157
2019-05-02T21:15:18.201Z,99158
2019-05-02T21:20:16.081Z,99154
2019-05-02T21:25:16.068Z,99168
2019-05-02T21:30:16.125Z,99164
2019-05-02T21:35:16.096Z,99159
2019-05-02T21:40:16.104Z,99158
2019-05-02T21:45:16.128Z,99165
2019-05-02T21:50:16.094Z,99156
2019-05-02T21:55:16.092Z,99164
2019-05-02T22:00:16.132Z,99162
2019-05-02T22:05:16.103Z,99156
2019-05-02T22:10:16.104Z,99153
2019-05-02T22:15:16.132Z,99148
2019-05-02T22:20:16.102Z,99151
2019-05-02T22:25:16.123Z,99150
2019-05-02T22:30:16.137Z,99144
2019-05-02T22:35:16.105Z,99161
2019-05-02T22:40:16.123Z,99160
2019-05-02T22:45:16.146Z,99167
2019-05-02T22:50:16.113Z,99158
2019-05-02T22:55:16.122Z,99161
2019-05-02T23:00:16.142Z,99159
2019-05-02T23:05:16.118Z,99162
2019-05-02T23:10:16.119Z,99157
2019-05-02T23:15:16.153Z,99166
2019-05-02T23:20:16.114Z,99163
2019-05-02T23:25:16.128Z,99158
2019-05-02T23:30:16.167Z,99160
2019-05-02T23:35:16.132Z,99162
2019-05-02T23:40:16.135Z,99159
2019-05-02T23:45:16.156Z,99165
2019-05-02T23:50:16.135Z,99162
2019-05-02T23:55:16.140Z,99163
